Time;durP1;ratioP1;P1;durP2;ratioP2;P2;SDS_P1;SDS_P2;PMS_P1;PMS_P2;Temp;Humidity;BMP_temperature;BMP_pressure;BME280_temperature;BME280_humidity;BME280_pressure;Samples;Min_cycle;Max_cycle;Signal;HPM_P1;HPM_P2
2021/09/08 00:01:32;;;;;;;18.40;11.73;;;;;;;;;;5053883;28;20512;-46
2021/09/08 00:03:58;;;;;;;16.50;12.47;;;;;;;;;;5052578;28;20923;-48
2021/09/08 00:06:24;;;;;;;16.07;11.73;;;;;;;;;;5053758;28;20737;-47
2021/09/08 00:08:50;;;;;;;13.30;10.67;;;;;;;;;;5053774;28;20371;-49
2021/09/08 00:11:16;;;;;;;15.87;11.40;;;;;;;;;;5053757;28;20433;-50
2021/09/08 00:13:42;;;;;;;19.23;11.80;;;;;;;;;;5052462;28;20428;-45
2021/09/08 00:16:08;;;;;;;16.80;12.23;;;;;;;;;;5053724;28;20406;-45
2021/09/08 00:18:35;;;;;;;16.60;11.20;;;;;;;;;;5053599;28;20421;-46
2021/09/08 00:21:01;;;;;;;17.47;11.70;;;;;;;;;;5053284;28;20449;-45
2021/09/08 00:23:27;;;;;;;13.90;10.83;;;;;;;;;;5053388;28;20734;-45
2021/09/08 00:25:53;;;;;;;17.47;11.77;;;;;;;;;;5053465;28;20377;-46
2021/09/08 00:28:18;;;;;;;17.00;11.50;;;;;;;;;;5053411;28;20397;-46
2021/09/08 00:30:44;;;;;;;19.60;12.50;;;;;;;;;;5035456;28;20457;-46
2021/09/08 00:33:11;;;;;;;15.90;11.33;;;;;;;;;;5050838;28;20415;-46
2021/09/08 00:35:36;;;;;;;18.43;11.43;;;;;;;;;;5053256;28;20409;-46
2021/09/08 00:38:02;;;;;;;17.37;12.50;;;;;;;;;;5053138;28;20439;-46
2021/09/08 00:40:28;;;;;;;22.60;13.30;;;;;;;;;;5053105;28;20499;-47
2021/09/08 00:42:54;;;;;;;20.30;12.80;;;;;;;;;;5052918;28;20383;-49
2021/09/08 00:45:20;;;;;;;14.33;11.37;;;;;;;;;;5053066;28;20407;-45
2021/09/08 00:47:48;;;;;;;18.17;11.83;;;;;;;;;;5053089;28;20421;-45
2021/09/08 00:50:13;;;;;;;21.80;12.20;;;;;;;;;;5052947;28;20455;-45
2021/09/08 00:52:41;;;;;;;19.23;12.60;;;;;;;;;;5052727;28;20409;-46
2021/09/08 00:55:08;;;;;;;18.33;11.73;;;;;;;;;;5052871;28;20407;-47
2021/09/08 00:57:34;;;;;;;15.33;11.73;;;;;;;;;;5052820;28;20418;-48
2021/09/08 01:00:01;;;;;;;17.50;12.27;;;;;;;;;;5052769;28;20780;-46
2021/09/08 01:02:27;;;;;;;19.70;12.63;;;;;;;;;;5052025;28;20882;-49
2021/09/08 01:04:53;;;;;;;17.73;12.00;;;;;;;;;;5050182;28;20425;-46
2021/09/08 01:07:20;;;;;;;19.63;11.40;;;;;;;;;;5052310;28;20480;-46
2021/09/08 01:09:46;;;;;;;17.00;12.60;;;;;;;;;;5052668;28;20379;-46
2021/09/08 01:12:12;;;;;;;18.50;12.60;;;;;;;;;;5052503;28;20398;-46
2021/09/08 01:14:41;;;;;;;16.33;12.13;;;;;;;;;;5052372;28;20380;-46
2021/09/08 01:17:07;;;;;;;17.40;11.80;;;;;;;;;;5052321;28;20540;-46
2021/09/08 01:19:33;;;;;;;19.50;11.70;;;;;;;;;;5052386;28;20425;-46
2021/09/08 01:21:59;;;;;;;21.50;12.73;;;;;;;;;;5052391;28;20936;-49
2021/09/08 01:24:26;;;;;;;16.60;12.40;;;;;;;;;;5052248;28;20411;-48
2021/09/08 01:26:53;;;;;;;15.60;11.73;;;;;;;;;;5052284;28;20432;-46
2021/09/08 01:29:20;;;;;;;11.17;8.20;;;;;;;;;;5052333;28;20399;-45
2021/09/08 01:31:52;;;;;;;18.77;11.80;;;;;;;;;;5052063;28;20438;-46
2021/09/08 01:34:18;;;;;;;16.17;12.50;;;;;;;;;;5050036;28;20457;-47
2021/09/08 01:36:44;;;;;;;36.90;11.90;;;;;;;;;;5051990;28;20452;-49
2021/09/08 01:39:16;;;;;;;19.03;12.10;;;;;;;;;;5052122;28;20387;-46
2021/09/08 01:41:42;;;;;;;21.77;13.20;;;;;;;;;;5052028;28;20483;-46
2021/09/08 01:44:08;;;;;;;16.80;12.07;;;;;;;;;;5051487;28;20413;-45
2021/09/08 01:46:34;;;;;;;19.93;13.50;;;;;;;;;;5051920;28;20511;-45
2021/09/08 01:49:00;;;;;;;18.97;13.60;;;;;;;;;;5051937;28;20397;-45
2021/09/08 01:51:26;;;;;;;18.67;14.03;;;;;;;;;;5051953;28;20397;-46
2021/09/08 01:53:52;;;;;;;20.90;14.50;;;;;;;;;;5051702;28;20857;-46
2021/09/08 01:56:17;;;;;;;20.90;13.90;;;;;;;;;;5051872;28;20866;-46
2021/09/08 01:58:44;;;;;;;21.80;13.40;;;;;;;;;;5051775;28;20418;-47
2021/09/08 02:01:10;;;;;;;22.50;13.73;;;;;;;;;;5051726;28;20533;-48
2021/09/08 02:03:36;;;;;;;18.53;13.73;;;;;;;;;;5051570;28;20405;-47
2021/09/08 02:06:16;;;;;;;20.20;13.87;;;;;;;;;;5049902;28;20404;-45
2021/09/08 02:08:42;;;;;;;19.77;13.87;;;;;;;;;;5051735;28;20412;-48
2021/09/08 02:11:08;;;;;;;21.03;13.13;;;;;;;;;;5051649;28;20388;-48
2021/09/08 02:13:34;;;;;;;22.63;13.30;;;;;;;;;;5049593;28;20434;-45
2021/09/08 02:16:00;;;;;;;17.87;12.47;;;;;;;;;;5051735;28;20437;-46
2021/09/08 02:18:26;;;;;;;18.37;13.00;;;;;;;;;;5051505;28;20407;-46
2021/09/08 02:20:52;;;;;;;16.83;12.73;;;;;;;;;;5051566;28;20457;-46
2021/09/08 02:23:18;;;;;;;16.80;12.37;;;;;;;;;;5051497;28;20402;-45
2021/09/08 02:25:44;;;;;;;22.23;12.87;;;;;;;;;;5050403;28;20440;-48
2021/09/08 02:28:09;;;;;;;20.60;12.67;;;;;;;;;;5031577;28;20396;-46
2021/09/08 02:30:35;;;;;;;16.40;12.00;;;;;;;;;;5031561;28;20406;-47
2021/09/08 02:33:01;;;;;;;17.03;12.30;;;;;;;;;;5031455;28;20422;-46
2021/09/08 02:35:27;;;;;;;20.40;14.17;;;;;;;;;;5031562;28;20409;-46
2021/09/08 02:37:53;;;;;;;20.17;13.77;;;;;;;;;;5031464;28;20437;-45
2021/09/08 02:40:19;;;;;;;20.57;14.23;;;;;;;;;;5031436;28;20491;-44
2021/09/08 02:42:45;;;;;;;20.00;13.30;;;;;;;;;;5031259;28;20377;-46
2021/09/08 02:45:11;;;;;;;22.70;13.90;;;;;;;;;;5031429;28;20410;-46
2021/09/08 02:47:38;;;;;;;20.30;12.90;;;;;;;;;;5031444;28;20407;-46
2021/09/08 02:50:04;;;;;;;20.60;14.70;;;;;;;;;;5031434;28;20784;-46
2021/09/08 02:52:30;;;;;;;15.97;12.80;;;;;;;;;;5031398;28;20385;-46
2021/09/08 02:54:56;;;;;;;19.83;13.33;;;;;;;;;;5031271;28;20421;-45
2021/09/08 02:57:22;;;;;;;19.70;12.10;;;;;;;;;;5045977;28;20452;-46
2021/09/08 02:59:47;;;;;;;20.70;13.10;;;;;;;;;;5055026;28;20403;-46
2021/09/08 03:02:13;;;;;;;20.30;12.70;;;;;;;;;;5054984;28;20843;-48
2021/09/08 03:04:39;;;;;;;18.20;13.27;;;;;;;;;;5054903;28;20367;-45
2021/09/08 03:07:05;;;;;;;21.20;13.30;;;;;;;;;;5054993;28;20459;-45
2021/09/08 03:09:31;;;;;;;17.47;12.23;;;;;;;;;;5054967;28;20435;-45
2021/09/08 03:11:58;;;;;;;23.70;13.37;;;;;;;;;;5054790;28;20566;-46
2021/09/08 03:14:24;;;;;;;22.00;13.40;;;;;;;;;;5054756;28;20379;-45
2021/09/08 03:16:50;;;;;;;17.97;13.20;;;;;;;;;;5054711;28;20421;-45
2021/09/08 03:19:16;;;;;;;19.03;12.93;;;;;;;;;;5054827;28;20397;-45
2021/09/08 03:21:42;;;;;;;16.50;12.13;;;;;;;;;;5054607;28;20527;-46
2021/09/08 03:24:08;;;;;;;18.10;12.40;;;;;;;;;;5054481;28;20405;-46
2021/09/08 03:26:33;;;;;;;17.30;12.77;;;;;;;;;;5053327;28;20432;-46
2021/09/08 03:28:59;;;;;;;17.47;12.60;;;;;;;;;;5054628;28;20534;-47
2021/09/08 03:31:25;;;;;;;15.23;12.00;;;;;;;;;;5054431;28;20408;-48
2021/09/08 03:33:51;;;;;;;19.50;13.70;;;;;;;;;;5054390;28;20404;-45
2021/09/08 03:36:17;;;;;;;16.90;12.17;;;;;;;;;;5054437;28;20406;-45
2021/09/08 03:38:43;;;;;;;23.10;13.83;;;;;;;;;;5054993;28;20388;-45
2021/09/08 03:41:09;;;;;;;17.90;12.47;;;;;;;;;;5054895;28;20965;-46
2021/09/08 03:43:35;;;;;;;21.67;13.83;;;;;;;;;;5054027;28;20395;-46
2021/09/08 03:46:04;;;;;;;20.47;12.73;;;;;;;;;;5054475;28;20911;-46
2021/09/08 03:48:31;;;;;;;16.43;12.33;;;;;;;;;;5054108;28;20418;-47
2021/09/08 03:50:57;;;;;;;20.77;12.30;;;;;;;;;;5054063;28;20393;-46
2021/09/08 03:53:23;;;;;;;20.63;13.30;;;;;;;;;;5053813;28;20393;-47
2021/09/08 03:55:49;;;;;;;21.60;13.90;;;;;;;;;;5053960;28;20461;-47
2021/09/08 03:58:15;;;;;;;20.03;13.53;;;;;;;;;;5053889;28;20775;-46
2021/09/08 04:00:41;;;;;;;18.43;13.10;;;;;;;;;;5053908;28;20936;-46
2021/09/08 04:03:07;;;;;;;18.60;12.90;;;;;;;;;;5053663;28;20838;-46
2021/09/08 04:05:33;;;;;;;20.47;12.80;;;;;;;;;;5052978;28;20423;-46
2021/09/08 04:07:59;;;;;;;17.57;12.10;;;;;;;;;;5052912;28;20441;-46
2021/09/08 04:10:25;;;;;;;18.20;12.20;;;;;;;;;;5053822;28;20473;-46
2021/09/08 04:12:51;;;;;;;18.13;12.97;;;;;;;;;;5053444;28;20398;-47
2021/09/08 04:15:17;;;;;;;21.80;13.60;;;;;;;;;;5053735;28;20390;-47
2021/09/08 04:17:43;;;;;;;20.00;13.67;;;;;;;;;;5053561;28;20427;-47
2021/09/08 04:20:09;;;;;;;16.40;13.43;;;;;;;;;;5053591;28;20835;-47
2021/09/08 04:22:36;;;;;;;15.97;12.40;;;;;;;;;;5053449;28;20498;-47
2021/09/08 04:25:02;;;;;;;22.33;13.50;;;;;;;;;;5053336;28;20465;-46
2021/09/08 04:27:28;;;;;;;19.37;13.63;;;;;;;;;;5053460;28;20418;-46
2021/09/08 04:29:54;;;;;;;20.83;12.93;;;;;;;;;;5053391;28;20454;-46
2021/09/08 04:32:20;;;;;;;17.50;13.40;;;;;;;;;;5053469;28;20873;-46
2021/09/08 04:34:46;;;;;;;21.23;13.80;;;;;;;;;;5051535;28;20449;-47
2021/09/08 04:37:12;;;;;;;16.73;12.37;;;;;;;;;;5053120;28;20460;-49
2021/09/08 04:39:38;;;;;;;24.47;14.40;;;;;;;;;;5053174;28;20402;-46
2021/09/08 04:42:04;;;;;;;18.50;12.83;;;;;;;;;;5052515;28;20448;-46
2021/09/08 04:44:30;;;;;;;19.53;13.87;;;;;;;;;;5053023;28;20400;-46
2021/09/08 04:46:56;;;;;;;20.13;13.53;;;;;;;;;;5053092;28;20416;-45
2021/09/08 04:49:22;;;;;;;24.23;13.77;;;;;;;;;;5053046;28;20372;-46
2021/09/08 04:51:48;;;;;;;22.50;14.93;;;;;;;;;;5052975;28;20393;-46
2021/09/08 04:54:14;;;;;;;22.40;13.73;;;;;;;;;;5052751;28;20377;-46
2021/09/08 04:56:40;;;;;;;29.33;15.00;;;;;;;;;;5052892;28;20387;-46
2021/09/08 04:59:06;;;;;;;23.50;13.47;;;;;;;;;;5052871;28;20396;-46
2021/09/08 05:01:33;;;;;;;21.00;13.53;;;;;;;;;;5051632;28;20807;-46
2021/09/08 05:03:59;;;;;;;23.33;14.17;;;;;;;;;;5052658;28;20409;-46
2021/09/08 05:06:24;;;;;;;19.73;13.57;;;;;;;;;;5053116;28;20415;-47
2021/09/08 05:08:50;;;;;;;22.43;14.93;;;;;;;;;;5051638;28;20428;-46
2021/09/08 05:11:16;;;;;;;22.07;15.27;;;;;;;;;;5052662;28;20807;-47
2021/09/08 05:13:42;;;;;;;22.97;14.70;;;;;;;;;;5052464;28;20376;-47
2021/09/08 05:16:09;;;;;;;25.50;16.20;;;;;;;;;;5052626;28;20918;-48
2021/09/08 05:18:35;;;;;;;22.17;14.43;;;;;;;;;;5051921;28;20890;-47
2021/09/08 05:21:01;;;;;;;19.50;14.57;;;;;;;;;;5052184;28;20451;-46
2021/09/08 05:23:27;;;;;;;20.87;15.10;;;;;;;;;;5052274;28;20393;-46
2021/09/08 05:25:53;;;;;;;24.97;13.93;;;;;;;;;;5052381;28;20734;-47
2021/09/08 05:28:20;;;;;;;21.23;13.70;;;;;;;;;;5052378;28;20448;-48
2021/09/08 05:30:46;;;;;;;26.10;14.43;;;;;;;;;;5051049;28;20919;-46
2021/09/08 05:33:12;;;;;;;20.70;14.30;;;;;;;;;;5052098;28;20383;-47
2021/09/08 05:35:38;;;;;;;26.00;15.60;;;;;;;;;;5052142;28;20822;-47
2021/09/08 05:38:04;;;;;;;20.53;14.10;;;;;;;;;;5052027;28;20530;-48
2021/09/08 05:40:30;;;;;;;23.70;15.83;;;;;;;;;;5052182;28;20544;-46
2021/09/08 05:42:56;;;;;;;22.87;14.93;;;;;;;;;;5052008;28;20397;-46
2021/09/08 05:45:24;;;;;;;19.20;14.13;;;;;;;;;;5052063;28;20914;-46
2021/09/08 05:47:50;;;;;;;25.30;15.80;;;;;;;;;;5051897;28;20821;-48
2021/09/08 05:50:16;;;;;;;19.57;14.97;;;;;;;;;;5051997;28;20484;-46
2021/09/08 05:52:42;;;;;;;28.93;14.77;;;;;;;;;;5051829;28;20406;-46
2021/09/08 05:55:09;;;;;;;23.90;15.37;;;;;;;;;;5051810;28;20431;-47
2021/09/08 05:57:35;;;;;;;22.10;15.90;;;;;;;;;;5050902;28;20430;-48
2021/09/08 06:00:01;;;;;;;22.67;15.37;;;;;;;;;;5050993;28;20449;-46
2021/09/08 06:02:27;;;;;;;25.63;15.57;;;;;;;;;;5051257;28;20401;-46
2021/09/08 06:04:53;;;;;;;21.97;13.53;;;;;;;;;;5050902;28;20404;-46
2021/09/08 06:07:19;;;;;;;23.40;15.30;;;;;;;;;;5051210;28;20391;-46
2021/09/08 06:09:45;;;;;;;26.80;16.33;;;;;;;;;;5051054;28;20393;-46
2021/09/08 06:12:11;;;;;;;27.57;16.37;;;;;;;;;;5051025;28;20376;-47
2021/09/08 06:14:37;;;;;;;24.23;15.80;;;;;;;;;;5051090;28;20426;-46
2021/09/08 06:17:03;;;;;;;26.00;14.90;;;;;;;;;;5050929;28;20396;-46
2021/09/08 06:19:29;;;;;;;20.73;15.03;;;;;;;;;;5051149;28;20426;-46
2021/09/08 06:21:55;;;;;;;24.30;15.53;;;;;;;;;;5051119;28;20463;-48
2021/09/08 06:24:21;;;;;;;24.83;15.40;;;;;;;;;;5051448;28;20444;-46
2021/09/08 06:26:47;;;;;;;20.60;15.40;;;;;;;;;;5050463;28;20510;-46
2021/09/08 06:29:13;;;;;;;22.80;15.47;;;;;;;;;;5052068;28;20371;-46
2021/09/08 06:31:39;;;;;;;19.67;13.13;;;;;;;;;;5055641;28;20416;-47
2021/09/08 06:34:05;;;;;;;20.93;14.53;;;;;;;;;;5055393;28;20406;-46
2021/09/08 06:36:31;;;;;;;20.23;14.63;;;;;;;;;;5055439;28;20751;-46
2021/09/08 06:38:57;;;;;;;24.37;14.30;;;;;;;;;;5055488;28;20463;-47
2021/09/08 06:41:22;;;;;;;25.53;15.83;;;;;;;;;;5060704;28;20456;-47
2021/09/08 06:43:49;;;;;;;21.70;15.23;;;;;;;;;;5035239;28;20857;-47
2021/09/08 06:46:15;;;;;;;18.30;13.93;;;;;;;;;;5035744;28;20382;-47
2021/09/08 06:48:41;;;;;;;23.03;15.03;;;;;;;;;;5035323;28;20419;-47
2021/09/08 06:51:07;;;;;;;25.40;16.10;;;;;;;;;;5035313;28;20396;-47
2021/09/08 06:53:33;;;;;;;21.20;14.30;;;;;;;;;;5041547;28;20427;-47
2021/09/08 06:55:59;;;;;;;25.60;15.40;;;;;;;;;;5055176;28;20399;-47
2021/09/08 06:58:25;;;;;;;23.60;13.93;;;;;;;;;;5055155;28;20430;-47
2021/09/08 07:00:51;;;;;;;23.93;16.73;;;;;;;;;;5054883;28;20457;-48
2021/09/08 07:03:17;;;;;;;27.07;13.60;;;;;;;;;;5054901;28;20409;-48
2021/09/08 07:05:43;;;;;;;22.70;13.23;;;;;;;;;;5054999;28;20405;-47
2021/09/08 07:08:11;;;;;;;16.40;12.97;;;;;;;;;;5055064;28;20453;-48
2021/09/08 07:10:38;;;;;;;15.87;12.73;;;;;;;;;;5054947;28;20416;-48
2021/09/08 07:13:04;;;;;;;18.00;11.40;;;;;;;;;;5054938;28;20891;-48
2021/09/08 07:15:29;;;;;;;16.60;11.63;;;;;;;;;;5054671;28;20474;-48
2021/09/08 07:17:55;;;;;;;16.13;11.90;;;;;;;;;;5054796;28;20546;-48
2021/09/08 07:20:23;;;;;;;13.77;11.30;;;;;;;;;;5054599;28;20471;-48
2021/09/08 07:22:49;;;;;;;15.37;11.17;;;;;;;;;;5052504;28;20838;-48
2021/09/08 07:25:15;;;;;;;14.63;10.40;;;;;;;;;;5054610;28;20398;-48
2021/09/08 07:27:41;;;;;;;13.83;9.70;;;;;;;;;;5054634;28;20467;-49
2021/09/08 07:30:07;;;;;;;14.10;10.40;;;;;;;;;;5054522;28;20436;-48
2021/09/08 07:32:33;;;;;;;11.70;10.50;;;;;;;;;;5054507;28;20946;-48
2021/09/08 07:34:59;;;;;;;14.73;10.50;;;;;;;;;;5054338;28;20410;-48
2021/09/08 07:37:26;;;;;;;13.93;9.83;;;;;;;;;;5054304;28;20888;-49
2021/09/08 07:39:52;;;;;;;13.80;10.80;;;;;;;;;;5054322;28;20401;-48
2021/09/08 07:42:18;;;;;;;11.67;10.10;;;;;;;;;;5053662;28;20513;-48
2021/09/08 07:44:44;;;;;;;13.60;10.30;;;;;;;;;;5054053;28;20781;-48
2021/09/08 07:47:11;;;;;;;12.40;10.00;;;;;;;;;;5054114;28;20496;-49
2021/09/08 07:49:37;;;;;;;11.00;10.00;;;;;;;;;;5053193;28;20509;-49
2021/09/08 07:52:03;;;;;;;13.93;10.30;;;;;;;;;;5054100;28;20881;-48
2021/09/08 07:54:29;;;;;;;11.20;9.80;;;;;;;;;;5054011;28;20816;-49
2021/09/08 07:56:55;;;;;;;13.60;10.13;;;;;;;;;;5053950;28;20418;-48
2021/09/08 07:59:21;;;;;;;13.97;10.50;;;;;;;;;;5054005;28;20471;-49
2021/09/08 08:01:47;;;;;;;13.13;11.83;;;;;;;;;;5053916;28;20198;-49
2021/09/08 08:04:13;;;;;;;12.33;10.97;;;;;;;;;;5053677;28;20402;-49
2021/09/08 08:06:39;;;;;;;16.03;10.40;;;;;;;;;;5053926;28;20490;-49
2021/09/08 08:09:06;;;;;;;10.53;9.20;;;;;;;;;;5053776;28;20436;-49
2021/09/08 08:11:32;;;;;;;14.40;10.60;;;;;;;;;;5053769;28;20439;-49
2021/09/08 08:13:58;;;;;;;12.10;9.97;;;;;;;;;;5053547;28;20480;-49
2021/09/08 08:16:24;;;;;;;12.63;9.87;;;;;;;;;;5053695;28;20889;-49
2021/09/08 08:18:50;;;;;;;13.30;10.23;;;;;;;;;;5051116;28;20550;-49
2021/09/08 08:21:16;;;;;;;11.50;10.30;;;;;;;;;;5053467;28;20512;-49
2021/09/08 08:23:42;;;;;;;13.70;10.17;;;;;;;;;;5053365;28;20943;-49
2021/09/08 08:26:08;;;;;;;12.77;10.00;;;;;;;;;;5053620;28;20417;-49
2021/09/08 08:28:34;;;;;;;12.33;10.80;;;;;;;;;;5053370;28;20413;-49
2021/09/08 08:31:00;;;;;;;12.20;10.43;;;;;;;;;;5053320;28;20406;-50
2021/09/08 08:33:29;;;;;;;12.13;10.80;;;;;;;;;;5053148;28;20425;-48
2021/09/08 08:35:55;;;;;;;10.80;9.67;;;;;;;;;;5053353;28;20406;-49
2021/09/08 08:38:21;;;;;;;19.83;10.90;;;;;;;;;;5053188;28;20445;-49
2021/09/08 08:40:48;;;;;;;14.83;10.33;;;;;;;;;;5053195;28;20847;-49
2021/09/08 08:43:14;;;;;;;13.50;10.20;;;;;;;;;;5053099;28;20417;-48
2021/09/08 08:45:40;;;;;;;15.37;11.67;;;;;;;;;;5051214;28;20478;-49
2021/09/08 08:48:07;;;;;;;12.47;10.03;;;;;;;;;;5053197;28;20214;-48
2021/09/08 08:50:33;;;;;;;10.50;9.30;;;;;;;;;;5053011;28;20420;-48
2021/09/08 08:52:59;;;;;;;11.33;9.77;;;;;;;;;;5052023;28;20490;-50
2021/09/08 08:55:25;;;;;;;11.53;10.27;;;;;;;;;;5052789;28;20600;-48
2021/09/08 08:57:51;;;;;;;10.40;9.33;;;;;;;;;;5052908;28;20421;-49
2021/09/08 09:00:21;;;;;;;13.33;10.00;;;;;;;;;;5052771;28;20449;-50
2021/09/08 09:02:48;;;;;;;13.73;10.60;;;;;;;;;;5052743;28;20479;-49
2021/09/08 09:05:27;;;;;;;12.87;9.20;;;;;;;;;;5052618;28;20405;-49
2021/09/08 09:07:53;;;;;;;10.67;9.67;;;;;;;;;;5052736;28;20447;-49
2021/09/08 09:10:19;;;;;;;11.53;10.03;;;;;;;;;;5052496;28;20405;-49
2021/09/08 09:12:46;;;;;;;14.87;10.23;;;;;;;;;;5052686;28;20459;-48
2021/09/08 09:15:14;;;;;;;14.67;10.87;;;;;;;;;;5051073;28;20433;-49
2021/09/08 09:17:40;;;;;;;13.27;10.63;;;;;;;;;;5051801;28;20473;-50
2021/09/08 09:20:25;;;;;;;15.20;11.60;;;;;;;;;;5052343;28;20901;-49
2021/09/08 09:22:56;;;;;;;10.07;8.87;;;;;;;;;;5052492;28;20447;-49
2021/09/08 09:25:22;;;;;;;10.07;8.63;;;;;;;;;;5052228;28;20916;-49
2021/09/08 09:27:57;;;;;;;21.40;17.73;;;;;;;;;;5052377;28;20413;-50
2021/09/08 09:30:24;;;;;;;9.67;8.40;;;;;;;;;;5052292;28;20405;-48
2021/09/08 09:32:51;;;;;;;11.07;9.90;;;;;;;;;;5051136;28;20462;-49
2021/09/08 09:35:22;;;;;;;10.27;9.20;;;;;;;;;;5052008;28;20413;-49
2021/09/08 09:37:50;;;;;;;13.47;9.83;;;;;;;;;;5052630;28;20448;-49
2021/09/08 09:40:18;;;;;;;9.80;8.50;;;;;;;;;;5052084;28;20460;-51
2021/09/08 09:42:44;;;;;;;14.37;10.20;;;;;;;;;;5051897;28;20459;-49
2021/09/08 09:45:11;;;;;;;10.17;8.70;;;;;;;;;;5053437;28;21022;-49
2021/09/08 09:47:38;;;;;;;10.73;9.63;;;;;;;;;;5055468;28;20425;-49
2021/09/08 09:50:06;;;;;;;12.17;9.43;;;;;;;;;;5051975;28;20452;-48
2021/09/08 09:52:32;;;;;;;10.37;9.47;;;;;;;;;;5050424;28;20429;-47
2021/09/08 09:54:59;;;;;;;11.37;8.97;;;;;;;;;;5051284;28;20510;-49
2021/09/08 09:57:26;;;;;;;14.40;9.03;;;;;;;;;;5051653;28;20427;-47
2021/09/08 09:59:53;;;;;;;12.07;10.87;;;;;;;;;;5051771;28;20517;-47
2021/09/08 10:02:19;;;;;;;10.77;9.77;;;;;;;;;;5051616;28;20444;-47
2021/09/08 10:04:45;;;;;;;15.37;13.87;;;;;;;;;;5051315;28;20428;-47
2021/09/08 10:07:12;;;;;;;11.23;9.13;;;;;;;;;;5049495;28;20545;-47
2021/09/08 10:09:38;;;;;;;8.83;7.97;;;;;;;;;;5051668;28;20397;-48
2021/09/08 10:12:05;;;;;;;13.53;8.77;;;;;;;;;;5051601;28;20404;-48
2021/09/08 10:14:31;;;;;;;10.27;7.83;;;;;;;;;;5051423;28;20456;-47
2021/09/08 10:17:01;;;;;;;11.43;8.73;;;;;;;;;;5051852;28;20457;-47
2021/09/08 10:19:28;;;;;;;10.67;9.67;;;;;;;;;;5051604;28;20436;-48
2021/09/08 10:22:07;;;;;;;8.93;8.03;;;;;;;;;;5051477;28;20460;-47
2021/09/08 10:24:33;;;;;;;12.50;8.50;;;;;;;;;;5049554;28;20429;-48
2021/09/08 10:27:00;;;;;;;10.03;9.00;;;;;;;;;;5049258;28;20559;-50
2021/09/08 10:29:27;;;;;;;8.40;7.10;;;;;;;;;;5051470;28;20411;-47
2021/09/08 10:31:54;;;;;;;8.53;7.73;;;;;;;;;;5051356;28;20405;-50
2021/09/08 10:34:21;;;;;;;10.40;8.30;;;;;;;;;;5051275;28;20884;-48
2021/09/08 10:36:47;;;;;;;13.10;8.43;;;;;;;;;;5051204;28;20443;-47
2021/09/08 10:39:14;;;;;;;12.80;7.73;;;;;;;;;;5051474;28;20402;-47
2021/09/08 10:41:40;;;;;;;13.27;8.97;;;;;;;;;;5051227;28;20453;-51
2021/09/08 10:44:06;;;;;;;9.40;7.87;;;;;;;;;;5051239;28;20424;-48
2021/09/08 10:46:52;;;;;;;13.73;8.23;;;;;;;;;;5051343;28;20167;-48
2021/09/08 10:49:36;;;;;;;8.70;7.63;;;;;;;;;;5050251;28;20802;-48
2021/09/08 10:52:05;;;;;;;8.63;7.80;;;;;;;;;;5051300;28;20425;-49
2021/09/08 10:54:31;;;;;;;10.87;8.00;;;;;;;;;;5050775;28;20401;-47
2021/09/08 10:56:58;;;;;;;9.87;8.87;;;;;;;;;;5050630;28;20444;-47
2021/09/08 10:59:24;;;;;;;8.73;7.77;;;;;;;;;;5051086;28;20768;-48
2021/09/08 11:01:53;;;;;;;8.70;7.90;;;;;;;;;;5051177;28;20507;-50
2021/09/08 11:04:19;;;;;;;7.67;6.70;;;;;;;;;;5050948;28;20409;-47
2021/09/08 11:06:49;;;;;;;9.03;7.10;;;;;;;;;;5050946;28;20413;-48
2021/09/08 11:09:19;;;;;;;8.20;7.50;;;;;;;;;;5048931;28;20405;-47
2021/09/08 11:11:52;;;;;;;7.77;7.17;;;;;;;;;;5051030;28;20408;-49
2021/09/08 11:14:18;;;;;;;7.40;6.80;;;;;;;;;;5050893;28;20908;-48
2021/09/08 11:16:44;;;;;;;7.87;7.07;;;;;;;;;;5052355;28;20425;-48
2021/09/08 11:19:12;;;;;;;7.30;6.70;;;;;;;;;;5054751;28;20405;-49
2021/09/08 11:21:38;;;;;;;6.70;6.10;;;;;;;;;;5054486;28;20449;-48
2021/09/08 11:24:08;;;;;;;6.83;6.27;;;;;;;;;;5054677;28;20474;-48
2021/09/08 11:26:36;;;;;;;7.33;6.60;;;;;;;;;;5054551;28;20408;-48
2021/09/08 11:29:06;;;;;;;7.60;6.90;;;;;;;;;;5054586;28;20440;-48
2021/09/08 11:31:37;;;;;;;10.23;9.33;;;;;;;;;;5054410;28;20405;-50
2021/09/08 11:34:04;;;;;;;17.00;15.20;;;;;;;;;;5053395;28;20433;-48
2021/09/08 11:36:30;;;;;;;15.30;7.33;;;;;;;;;;5054303;28;20424;-48
2021/09/08 11:38:58;;;;;;;8.13;7.43;;;;;;;;;;5055128;28;21238;-49
2021/09/08 11:41:25;;;;;;;8.27;7.50;;;;;;;;;;5052570;28;20453;-49
2021/09/08 11:43:52;;;;;;;6.40;5.90;;;;;;;;;;5052714;28;20412;-51
2021/09/08 11:46:30;;;;;;;7.57;6.90;;;;;;;;;;5054059;28;20773;-48
2021/09/08 11:49:03;;;;;;;7.97;7.10;;;;;;;;;;5054183;28;20401;-48
2021/09/08 11:51:32;;;;;;;7.90;6.60;;;;;;;;;;5054166;28;20398;-47
2021/09/08 11:54:01;;;;;;;7.87;7.07;;;;;;;;;;5053912;28;20410;-49
2021/09/08 11:56:27;;;;;;;6.23;5.77;;;;;;;;;;5054047;28;20413;-48
2021/09/08 11:58:54;;;;;;;9.20;8.20;;;;;;;;;;5050944;28;20437;-48
2021/09/08 12:01:21;;;;;;;8.00;6.50;;;;;;;;;;5053910;28;20232;-48
2021/09/08 12:03:48;;;;;;;7.27;6.67;;;;;;;;;;5053773;28;20405;-49
2021/09/08 12:06:14;;;;;;;7.57;6.90;;;;;;;;;;5053949;28;20763;-48
2021/09/08 12:08:51;;;;;;;6.90;6.30;;;;;;;;;;5053762;28;20417;-48
2021/09/08 12:11:35;;;;;;;5.63;5.23;;;;;;;;;;5053824;28;20408;-49
2021/09/08 12:14:40;;;;;;;9.57;6.73;;;;;;;;;;5053524;28;20397;-51
2021/09/08 12:17:09;;;;;;;7.80;6.40;;;;;;;;;;5003164;28;20429;-50
2021/09/08 12:19:36;;;;;;;7.77;7.07;;;;;;;;;;5053495;28;20398;-48
2021/09/08 12:22:07;;;;;;;7.37;6.67;;;;;;;;;;5053494;28;20531;-51
2021/09/08 12:24:34;;;;;;;7.13;6.63;;;;;;;;;;5053318;28;20484;-48
2021/09/08 12:27:00;;;;;;;10.47;7.50;;;;;;;;;;5051334;28;20988;-48
2021/09/08 12:29:27;;;;;;;7.97;7.27;;;;;;;;;;5052695;28;20427;-47
2021/09/08 12:31:54;;;;;;;8.93;8.13;;;;;;;;;;5053427;28;20413;-48
2021/09/08 12:34:21;;;;;;;6.77;6.27;;;;;;;;;;5053176;28;20892;-48
2021/09/08 12:36:47;;;;;;;7.57;6.97;;;;;;;;;;5053169;28;20436;-48
2021/09/08 12:39:18;;;;;;;8.77;6.90;;;;;;;;;;5053361;28;20408;-47
2021/09/08 12:41:56;;;;;;;6.93;6.23;;;;;;;;;;5053100;28;20456;-51
2021/09/08 12:44:26;;;;;;;7.57;6.87;;;;;;;;;;5053164;28;20432;-48
2021/09/08 12:46:52;;;;;;;6.50;5.80;;;;;;;;;;5052905;28;20920;-48
2021/09/08 12:49:25;;;;;;;8.30;7.50;;;;;;;;;;5053123;28;20626;-50
2021/09/08 12:51:51;;;;;;;7.27;6.63;;;;;;;;;;5052989;28;20408;-50
2021/09/08 12:54:17;;;;;;;7.13;6.53;;;;;;;;;;5052895;28;20767;-50
2021/09/08 12:56:45;;;;;;;7.50;6.47;;;;;;;;;;5052778;28;20423;-48
2021/09/08 12:59:12;;;;;;;7.13;6.53;;;;;;;;;;5050652;28;20627;-52
2021/09/08 13:01:39;;;;;;;9.20;6.40;;;;;;;;;;5052534;28;20529;-48
2021/09/08 13:04:05;;;;;;;7.40;6.70;;;;;;;;;;5052507;28;20402;-50
2021/09/08 13:06:31;;;;;;;9.03;8.13;;;;;;;;;;5052812;28;20501;-51
2021/09/08 13:08:58;;;;;;;8.53;7.83;;;;;;;;;;5052662;28;21094;-48
2021/09/08 13:11:24;;;;;;;6.17;5.60;;;;;;;;;;5052548;28;21082;-48
2021/09/08 13:13:50;;;;;;;7.23;6.63;;;;;;;;;;5052287;28;20421;-48
2021/09/08 13:16:16;;;;;;;6.33;5.87;;;;;;;;;;5052546;28;20493;-48
2021/09/08 13:18:42;;;;;;;7.70;7.00;;;;;;;;;;5052474;28;20563;-48
2021/09/08 13:21:08;;;;;;;6.73;6.03;;;;;;;;;;5052448;28;20463;-48
2021/09/08 13:23:34;;;;;;;5.70;5.20;;;;;;;;;;5052299;28;20405;-48
2021/09/08 13:26:00;;;;;;;7.27;6.60;;;;;;;;;;5052160;28;20774;-48
2021/09/08 13:28:26;;;;;;;6.20;5.70;;;;;;;;;;5050276;28;20498;-48
2021/09/08 13:30:52;;;;;;;7.37;5.57;;;;;;;;;;5052289;28;20418;-48
2021/09/08 13:33:18;;;;;;;7.87;7.07;;;;;;;;;;5052469;28;20484;-47
2021/09/08 13:35:44;;;;;;;5.67;5.27;;;;;;;;;;5052041;28;20489;-48
2021/09/08 13:38:10;;;;;;;8.23;6.17;;;;;;;;;;5052115;28;20260;-49
2021/09/08 13:40:36;;;;;;;6.93;6.33;;;;;;;;;;5051499;28;20457;-50
2021/09/08 13:43:02;;;;;;;6.40;5.90;;;;;;;;;;5052028;28;20777;-47
2021/09/08 13:45:28;;;;;;;7.63;6.70;;;;;;;;;;5051992;28;20429;-48
2021/09/08 13:47:54;;;;;;;7.57;5.43;;;;;;;;;;5052067;28;20946;-47
2021/09/08 13:50:20;;;;;;;5.87;5.37;;;;;;;;;;5051980;28;20516;-47
2021/09/08 13:52:46;;;;;;;6.30;5.50;;;;;;;;;;5052039;28;20905;-47
2021/09/08 13:55:13;;;;;;;6.20;5.53;;;;;;;;;;5051698;28;20416;-48
2021/09/08 13:57:39;;;;;;;6.67;6.00;;;;;;;;;;5051829;28;20421;-47
2021/09/08 14:00:06;;;;;;;6.60;5.90;;;;;;;;;;5050723;28;20436;-49
2021/09/08 14:02:32;;;;;;;6.50;5.90;;;;;;;;;;5050652;28;20413;-48
2021/09/08 14:04:58;;;;;;;7.43;6.17;;;;;;;;;;5051681;28;20409;-47
2021/09/08 14:07:24;;;;;;;6.67;6.00;;;;;;;;;;5050939;28;20833;-49
2021/09/08 14:09:51;;;;;;;5.13;4.73;;;;;;;;;;5051749;28;20923;-50
2021/09/08 14:12:21;;;;;;;8.10;5.90;;;;;;;;;;5051348;28;20413;-49
2021/09/08 14:14:47;;;;;;;6.43;5.93;;;;;;;;;;5051533;28;20405;-49
2021/09/08 14:17:13;;;;;;;6.30;5.70;;;;;;;;;;5051558;28;20833;-48
2021/09/08 14:19:39;;;;;;;5.83;5.40;;;;;;;;;;5051670;28;20789;-47
2021/09/08 14:22:06;;;;;;;5.40;5.00;;;;;;;;;;5051475;28;20475;-48
2021/09/08 14:24:32;;;;;;;6.20;5.60;;;;;;;;;;5051471;28;20436;-48